Time;durP1;ratioP1;P1;durP2;ratioP2;P2;SDS_P1;SDS_P2;PMS_P1;PMS_P2;Temp;Humidity;BMP_temperature;BMP_pressure;BME280_temperature;BME280_humidity;BME280_pressure;Samples;Min_cycle;Max_cycle;Signal;HPM_P1;HPM_P2
2023/04/13 00:00:50;;;;;;;2.00;0.40;;;17.30;79.30;;;;;;6277095;22;20003;-74
2023/04/13 00:03:17;;;;;;;0.47;0.20;;;;;;;;;;6286894;22;20370;-74
2023/04/13 00:05:44;;;;;;;1.58;0.40;;;16.90;50.60;;;;;;6287047;22;19996;-74
2023/04/13 00:08:10;;;;;;;0.50;0.20;;;;;;;;;;6287198;22;20047;-85
2023/04/13 00:10:39;;;;;;;0.85;0.30;;;17.00;79.80;;;;;;6287179;22;20122;-85
2023/04/13 00:13:07;;;;;;;1.10;0.40;;;17.00;79.70;;;;;;6287152;22;20075;-84
2023/04/13 00:15:35;;;;;;;0.43;0.30;;;17.10;61.80;;;;;;6277129;22;20335;-84
2023/04/13 00:18:02;;;;;;;1.42;0.30;;;17.30;80.10;;;;;;6286971;22;20443;-84
2023/04/13 00:20:28;;;;;;;1.08;0.30;;;16.80;79.90;;;;;;6287053;22;20070;-85
2023/04/13 00:22:55;;;;;;;1.17;0.20;;;;;;;;;;6286820;22;20000;-84
2023/04/13 00:25:21;;;;;;;0.35;0.22;;;;;;;;;;6287261;22;20049;-85
2023/04/13 00:27:48;;;;;;;0.30;0.30;;;;;;;;;;6286866;22;19996;-85
2023/04/13 00:30:15;;;;;;;0.30;0.25;;;17.30;80.30;;;;;;6286989;22;20000;-84
2023/04/13 00:32:42;;;;;;;0.70;0.32;;;17.10;80.30;;;;;;6287063;22;20443;-84
2023/04/13 00:35:09;;;;;;;0.52;0.22;;;17.30;80.60;;;;;;6287071;22;19995;-84
2023/04/13 00:37:36;;;;;;;1.40;0.30;;;;;;;;;;6286823;22;20312;-84
2023/04/13 00:40:04;;;;;;;0.22;0.20;;;17.10;80.70;;;;;;6285260;22;20358;-85
2023/04/13 00:42:31;;;;;;;1.23;0.30;;;17.10;80.40;;;;;;6276901;22;19995;-85
2023/04/13 00:44:56;;;;;;;0.82;0.30;;;17.20;80.80;;;;;;6276350;22;20319;-85
2023/04/13 00:47:29;;;;;;;1.88;0.30;;;17.10;80.90;;;;;;6276830;22;19996;-85
2023/04/13 00:49:57;;;;;;;0.70;0.20;;;17.00;49.30;;;;;;6276461;22;19992;-84
2023/04/13 00:52:23;;;;;;;0.47;0.20;;;17.20;81.50;;;;;;6276794;22;19999;-84
2023/04/13 00:54:50;;;;;;;1.13;0.25;;;17.20;81.80;;;;;;6276819;22;20322;-85
2023/04/13 00:57:17;;;;;;;0.88;0.20;;;17.20;81.40;;;;;;6286587;22;20008;-85
2023/04/13 00:59:44;;;;;;;0.40;0.20;;;17.10;81.20;;;;;;6286712;22;19999;-85
2023/04/13 01:02:10;;;;;;;0.95;0.30;;;;;;;;;;6286623;22;20003;-84
2023/04/13 01:04:36;;;;;;;0.20;0.20;;;16.80;71.70;;;;;;6286640;22;20006;-84
2023/04/13 01:07:14;;;;;;;0.40;0.20;;;17.20;82.10;;;;;;6286602;22;19996;-84
2023/04/13 01:10:00;;;;;;;2.35;0.28;;;17.30;78.70;;;;;;6286699;22;20066;-84
2023/04/13 01:12:33;;;;;;;1.05;0.13;;;17.10;82.30;;;;;;6286333;22;20442;-84
2023/04/13 01:15:11;;;;;;;0.43;0.30;;;17.10;82.20;;;;;;6286527;22;19992;-85
2023/04/13 01:17:40;;;;;;;0.52;0.40;;;17.00;82.40;;;;;;6276062;22;20057;-85
2023/04/13 01:20:14;;;;;;;0.73;0.38;;;17.00;51.80;;;;;;6286569;22;19992;-85
2023/04/13 01:23:03;;;;;;;0.73;0.30;;;17.10;51.90;;;;;;6286498;22;20003;-85
2023/04/13 01:26:03;;;;;;;2.15;0.30;;;17.20;48.60;;;;;;6286541;22;19996;-85
2023/04/13 01:28:29;;;;;;;1.35;0.20;;;16.90;59.40;;;;;;6254755;22;20000;-85
2023/04/13 01:30:59;;;;;;;0.88;0.20;;;17.20;82.80;;;;;;6286466;22;20062;-85
2023/04/13 01:33:24;;;;;;;0.40;0.30;;;16.80;64.80;;;;;;6286322;22;20075;-85
2023/04/13 01:35:51;;;;;;;0.60;0.38;;;17.00;52.30;;;;;;6276368;22;20069;-85
2023/04/13 01:38:23;;;;;;;0.85;0.32;;;17.10;74.00;;;;;;6286288;22;20015;-84
2023/04/13 01:40:49;;;;;;;1.00;0.32;;;;;;;;;;6276415;22;20038;-82
2023/04/13 01:43:15;;;;;;;0.77;0.20;;;16.70;83.00;;;;;;6286220;22;20003;-82
2023/04/13 01:46:08;;;;;;;1.33;0.50;;;17.10;74.30;;;;;;6286078;22;19991;-82
2023/04/13 01:48:56;;;;;;;1.67;0.57;;;17.00;52.50;;;;;;6264948;22;20057;-82
2023/04/13 01:51:28;;;;;;;0.50;0.20;;;17.00;52.50;;;;;;6286114;22;19995;-81
2023/04/13 01:54:19;;;;;;;0.70;0.28;;;17.00;48.80;;;;;;6276203;22;19992;-82
2023/04/13 01:56:45;;;;;;;1.77;0.40;;;16.90;80.60;;;;;;6286004;22;20023;-82
2023/04/13 01:59:11;;;;;;;0.60;0.30;;;17.10;83.10;;;;;;6286101;22;19999;-82
2023/04/13 02:01:37;;;;;;;0.50;0.30;;;16.80;78.30;;;;;;6285882;22;20319;-82
2023/04/13 02:04:04;;;;;;;1.55;0.30;;;16.80;82.70;;;;;;6285866;22;20011;-82
2023/04/13 02:06:29;;;;;;;1.58;0.40;;;16.60;82.30;;;;;;6285914;22;20489;-82
2023/04/13 02:08:55;;;;;;;0.90;0.25;;;17.10;82.70;;;;;;6285891;22;19996;-81
2023/04/13 02:11:21;;;;;;;1.52;0.40;;;;;;;;;;6285918;22;19996;-82
2023/04/13 02:13:46;;;;;;;0.68;0.30;;;16.80;71.30;;;;;;6285976;22;20006;-82
2023/04/13 02:16:12;;;;;;;2.55;0.52;;;16.90;51.20;;;;;;6285950;22;19996;-82
2023/04/13 02:18:39;;;;;;;1.45;0.50;;;;;;;;;;6285845;22;20393;-82
2023/04/13 02:21:08;;;;;;;0.82;0.30;;;16.90;82.40;;;;;;6285954;22;19995;-82
2023/04/13 02:23:35;;;;;;;1.40;0.32;;;16.70;82.40;;;;;;6275421;22;20000;-82
2023/04/13 02:26:01;;;;;;;1.05;0.20;;;17.00;73.70;;;;;;6285843;22;20002;-82
2023/04/13 02:28:28;;;;;;;1.00;0.20;;;;;;;;;;6285774;22;19996;-82
2023/04/13 02:30:54;;;;;;;0.98;0.38;;;17.10;73.60;;;;;;6285798;22;20027;-82
2023/04/13 02:33:20;;;;;;;0.50;0.25;;;16.90;50.20;;;;;;6285937;22;20011;-82
2023/04/13 02:35:49;;;;;;;2.13;0.75;;;16.90;51.90;;;;;;6285731;22;20062;-82
2023/04/13 02:38:15;;;;;;;0.95;0.20;;;17.00;67.00;;;;;;6275251;22;20042;-82
2023/04/13 02:40:42;;;;;;;0.88;0.30;;;16.90;82.70;;;;;;6285695;22;19992;-82
2023/04/13 02:43:08;;;;;;;1.95;0.30;;;17.10;83.00;;;;;;6285688;22;20010;-82
2023/04/13 02:45:35;;;;;;;1.67;0.35;;;;;;;;;;6285780;22;20054;-82
2023/04/13 02:48:01;;;;;;;1.02;0.22;;;16.60;82.80;;;;;;6285794;22;20007;-82
2023/04/13 02:50:26;;;;;;;1.10;0.32;;;16.70;78.10;;;;;;6285559;22;20320;-81
2023/04/13 02:52:52;;;;;;;2.22;0.40;;;14.80;49.60;;;;;;6285853;22;19996;-82
2023/04/13 02:55:19;;;;;;;0.57;0.25;;;17.20;50.90;;;;;;6285714;22;19996;-81
2023/04/13 02:57:45;;;;;;;0.95;0.30;;;;;;;;;;6275503;22;20339;-81
2023/04/13 03:00:12;;;;;;;1.38;0.57;;;16.90;51.90;;;;;;6285636;22;19995;-82
2023/04/13 03:02:38;;;;;;;1.17;0.40;;;;;;;;;;6275141;22;20315;-82
2023/04/13 03:05:05;;;;;;;2.28;0.63;;;16.70;83.50;;;;;;6285575;22;20307;-82
2023/04/13 03:07:32;;;;;;;4.07;0.60;;;16.70;83.30;;;;;;6275889;22;19996;-82
2023/04/13 03:10:00;;;;;;;1.27;0.40;;;16.90;83.60;;;;;;6287957;22;20004;-82
2023/04/13 03:12:25;;;;;;;1.08;0.30;;;16.90;82.90;;;;;;6277765;22;20073;-82
2023/04/13 03:14:51;;;;;;;0.95;0.40;;;16.70;83.30;;;;;;6287657;22;20423;-82
2023/04/13 03:17:17;;;;;;;3.70;0.43;;;16.70;82.40;;;;;;6287485;22;20018;-82
2023/04/13 03:19:46;;;;;;;1.20;0.35;;;;;;;;;;6287543;22;20023;-82
2023/04/13 03:22:12;;;;;;;1.85;0.40;;;16.70;82.90;;;;;;6287619;22;20134;-82
2023/04/13 03:24:38;;;;;;;0.68;0.38;;;16.90;82.90;;;;;;6287606;22;20027;-82
2023/04/13 03:27:04;;;;;;;1.65;0.47;;;16.90;82.90;;;;;;6287632;22;19999;-82
2023/04/13 03:29:30;;;;;;;2.15;0.30;;;16.80;82.80;;;;;;6287640;22;20002;-82
2023/04/13 03:31:56;;;;;;;1.70;0.43;;;16.80;82.80;;;;;;6287538;22;19995;-82
2023/04/13 03:34:22;;;;;;;1.75;0.30;;;16.60;82.90;;;;;;6287425;22;20003;-82
2023/04/13 03:36:48;;;;;;;1.70;0.40;;;16.80;51.80;;;;;;6287231;22;20027;-82
2023/04/13 03:39:14;;;;;;;1.83;0.50;;;16.90;83.30;;;;;;6275635;22;20007;-82
2023/04/13 03:41:40;;;;;;;2.42;0.38;;;16.40;83.20;;;;;;6287259;22;20327;-82
2023/04/13 03:44:06;;;;;;;2.42;0.45;;;16.70;83.30;;;;;;6287463;22;20071;-82
2023/04/13 03:46:34;;;;;;;2.83;0.35;;;16.90;82.90;;;;;;6287406;22;19999;-83
2023/04/13 03:48:59;;;;;;;2.22;1.00;;;16.60;83.00;;;;;;6287474;22;20049;-82
2023/04/13 03:51:26;;;;;;;2.60;0.50;;;17.00;83.40;;;;;;6287181;22;19995;-82
2023/04/13 03:53:52;;;;;;;1.90;0.50;;;16.70;83.20;;;;;;6287299;22;20007;-82
2023/04/13 03:56:17;;;;;;;1.73;0.50;;;16.80;83.30;;;;;;6287235;22;19996;-82
2023/04/13 03:58:43;;;;;;;1.92;0.45;;;16.70;76.60;;;;;;6287085;22;20438;-82
2023/04/13 04:01:09;;;;;;;0.80;0.40;;;16.80;83.00;;;;;;6287125;22;20428;-82
2023/04/13 04:03:36;;;;;;;1.90;0.50;;;16.90;83.20;;;;;;6276754;22;20057;-82
2023/04/13 04:06:02;;;;;;;1.55;0.38;;;;;;;;;;6287245;22;20026;-83
2023/04/13 04:08:28;;;;;;;2.55;0.77;;;;;;;;;;6287160;22;20000;-82
2023/04/13 04:10:53;;;;;;;1.70;0.55;;;16.90;83.20;;;;;;6287066;22;20407;-83
2023/04/13 04:13:20;;;;;;;1.88;0.60;;;;;;;;;;6276719;22;19998;-82
2023/04/13 04:15:46;;;;;;;1.95;0.50;;;16.90;70.90;;;;;;6277087;22;20011;-82
2023/04/13 04:18:12;;;;;;;2.63;0.45;;;16.80;69.20;;;;;;6276586;22;20331;-82
2023/04/13 04:20:38;;;;;;;1.77;0.70;;;16.80;67.70;;;;;;6276002;22;20030;-82
2023/04/13 04:23:04;;;;;;;2.90;0.98;;;16.80;65.00;;;;;;6277012;22;19996;-82
2023/04/13 04:25:32;;;;;;;2.90;0.70;;;16.80;65.60;;;;;;6277043;22;19998;-82
2023/04/13 04:28:01;;;;;;;1.90;0.50;;;16.80;83.30;;;;;;6276572;22;20084;-82
2023/04/13 04:30:28;;;;;;;1.15;0.70;;;16.80;68.10;;;;;;6286871;22;19992;-82
2023/04/13 04:32:55;;;;;;;3.90;1.10;;;;;;;;;;6276941;22;20038;-82
2023/04/13 04:35:24;;;;;;;1.63;0.82;;;;;;;;;;6286817;22;20381;-82
2023/04/13 04:37:51;;;;;;;3.00;1.55;;;;;;;;;;6276368;22;20438;-82
2023/04/13 04:40:16;;;;;;;2.10;1.90;;;;;;;;;;6286693;22;20002;-82
2023/04/13 04:42:42;;;;;;;2.92;2.72;;;;;;;;;;6274872;22;20003;-82
2023/04/13 04:45:13;;;;;;;4.50;4.10;;;17.30;52.30;;;;;;6286683;22;20077;-83
2023/04/13 04:47:43;;;;;;;7.43;6.05;;;16.80;83.90;;;;;;6286896;22;19996;-82
2023/04/13 04:50:11;;;;;;;7.10;6.50;;;16.70;83.40;;;;;;6286760;22;19992;-82
2023/04/13 04:52:37;;;;;;;8.52;7.90;;;16.80;79.00;;;;;;6286697;22;20569;-82
2023/04/13 04:55:05;;;;;;;11.48;10.55;;;16.70;84.00;;;;;;6276727;22;20003;-82
2023/04/13 04:57:32;;;;;;;14.10;12.90;;;16.30;83.80;;;;;;6286773;22;20004;-82
2023/04/13 04:59:58;;;;;;;17.85;16.45;;;16.60;84.10;;;;;;6286748;22;19992;-83
2023/04/13 05:02:23;;;;;;;19.40;17.90;;;16.90;84.70;;;;;;6286340;22;20008;-82
2023/04/13 05:04:49;;;;;;;22.90;21.00;;;16.70;84.40;;;;;;6286650;22;20346;-82
2023/04/13 05:07:16;;;;;;;25.50;23.20;;;16.40;84.20;;;;;;6276573;22;19996;-82
2023/04/13 05:09:42;;;;;;;27.77;25.52;;;16.80;84.40;;;;;;6276567;22;20002;-83
2023/04/13 05:12:08;;;;;;;27.58;25.23;;;16.70;52.10;;;;;;6276578;22;20075;-82
2023/04/13 05:14:35;;;;;;;29.45;26.85;;;16.70;70.20;;;;;;6276230;22;20437;-82
2023/04/13 05:17:02;;;;;;;28.20;25.73;;;;;;;;;;6276293;22;19995;-82
2023/04/13 05:19:28;;;;;;;29.50;27.02;;;;;;;;;;6286632;22;20018;-85
2023/04/13 05:21:54;;;;;;;29.80;27.30;;;;;;;;;;6286643;22;20395;-82
2023/04/13 05:24:20;;;;;;;29.90;27.27;;;16.90;84.00;;;;;;6287137;22;19992;-82
2023/04/13 05:26:46;;;;;;;27.50;25.20;;;16.90;83.80;;;;;;6286632;22;20000;-79
2023/04/13 05:29:11;;;;;;;25.38;23.08;;;16.60;83.70;;;;;;6286914;22;20048;-81
2023/04/13 05:31:37;;;;;;;23.88;21.88;;;16.60;84.00;;;;;;6286523;22;19999;-81
2023/04/13 05:34:03;;;;;;;23.38;21.48;;;16.70;83.60;;;;;;6286365;22;20174;-80
2023/04/13 05:36:30;;;;;;;22.35;20.55;;;;;;;;;;6286318;22;19996;-81
2023/04/13 05:38:57;;;;;;;20.58;18.90;;;16.70;83.50;;;;;;6286404;22;20000;-81
2023/04/13 05:41:23;;;;;;;19.60;18.00;;;16.40;70.10;;;;;;6276307;22;20002;-80
2023/04/13 05:43:48;;;;;;;19.05;17.45;;;16.90;69.80;;;;;;6286533;22;20180;-83
2023/04/13 05:46:14;;;;;;;17.02;15.73;;;;;;;;;;6274317;22;20074;-82
2023/04/13 05:48:42;;;;;;;16.10;14.90;;;;;;;;;;6286275;22;19996;-84
2023/04/13 05:51:08;;;;;;;15.15;13.93;;;;;;;;;;6286039;22;20033;-84
2023/04/13 05:53:35;;;;;;;15.60;14.23;;;;;;;;;;6286135;22;20078;-80
2023/04/13 05:56:01;;;;;;;12.68;11.68;;;16.70;83.60;;;;;;6276244;22;20063;-79
2023/04/13 05:58:27;;;;;;;11.45;10.57;;;16.90;83.90;;;;;;6275643;22;20427;-80
2023/04/13 06:00:54;;;;;;;10.82;9.95;;;;;;;;;;6275627;22;20427;-83
2023/04/13 06:03:20;;;;;;;10.55;9.57;;;16.60;83.70;;;;;;6275162;22;20016;-83
2023/04/13 06:05:47;;;;;;;10.23;9.23;;;;;;;;;;6276173;22;20030;-91
2023/04/13 06:08:13;;;;;;;8.57;7.68;;;16.70;83.80;;;;;;6276141;22;20458;-86
2023/04/13 06:10:40;;;;;;;7.85;7.15;;;16.80;84.20;;;;;;6276044;22;19992;-86
2023/04/13 06:13:07;;;;;;;7.88;7.15;;;16.80;84.10;;;;;;6277173;22;20087;-81
2023/04/13 06:15:35;;;;;;;6.82;6.13;;;16.80;83.80;;;;;;6276663;22;20064;-83
2023/04/13 06:18:01;;;;;;;5.90;5.30;;;16.70;83.60;;;;;;6276115;22;20004;-80
2023/04/13 06:20:27;;;;;;;5.68;5.05;;;16.90;84.30;;;;;;6287626;22;19992;-83
2023/04/13 06:22:53;;;;;;;5.05;4.57;;;16.80;84.30;;;;;;6286130;22;20084;-83
2023/04/13 06:25:19;;;;;;;5.47;4.40;;;;;;;;;;6285899;22;20365;-83
2023/04/13 06:27:47;;;;;;;4.30;3.55;;;16.70;84.30;;;;;;6276111;22;20004;-80
2023/04/13 06:30:13;;;;;;;4.28;3.33;;;16.80;84.30;;;;;;6275882;22;20585;-84
2023/04/13 06:32:39;;;;;;;4.00;3.17;;;;;;;;;;6286467;22;19996;-83
2023/04/13 06:35:06;;;;;;;2.90;2.60;;;16.50;84.30;;;;;;6285820;22;19991;-82
2023/04/13 06:37:34;;;;;;;3.58;2.72;;;16.50;84.20;;;;;;6275392;22;20457;-82
2023/04/13 06:40:11;;;;;;;3.03;2.40;;;;;;;;;;6275872;22;20011;-79
2023/04/13 06:42:39;;;;;;;2.90;1.90;;;16.90;84.40;;;;;;6275329;22;20011;-78
2023/04/13 06:45:07;;;;;;;2.63;1.77;;;16.80;84.60;;;;;;6275230;22;20003;-78
2023/04/13 06:47:33;;;;;;;5.43;1.88;;;16.80;75.10;;;;;;6274955;22;19995;-78
2023/04/13 06:50:05;;;;;;;7.68;2.08;;;16.70;50.60;;;;;;6275047;22;20403;-79
2023/04/13 06:52:32;;;;;;;5.03;1.50;;;16.80;85.00;;;;;;6275492;22;20072;-77
2023/04/13 06:54:59;;;;;;;3.58;1.58;;;;;;;;;;6275309;22;20427;-76
2023/04/13 06:57:25;;;;;;;7.53;1.75;;;;;;;;;;6275343;22;20066;-79
2023/04/13 06:59:51;;;;;;;6.05;1.60;;;16.70;60.10;;;;;;6275083;22;20000;-77
2023/04/13 07:02:18;;;;;;;6.90;1.50;;;;;;;;;;6275076;22;20315;-79
2023/04/13 07:04:44;;;;;;;4.15;1.35;;;;;;;;;;6274922;22;20435;-79
2023/04/13 07:07:11;;;;;;;5.10;1.45;;;;;;;;;;6275125;22;20030;-78
2023/04/13 07:09:37;;;;;;;6.25;1.75;;;16.40;85.00;;;;;;6275293;22;20000;-78
2023/04/13 07:12:03;;;;;;;6.10;1.17;;;16.70;85.00;;;;;;6275369;22;20047;-77
2023/04/13 07:14:37;;;;;;;5.18;1.33;;;16.50;85.10;;;;;;6275230;22;20308;-77
2023/04/13 07:17:04;;;;;;;5.60;1.85;;;;;;;;;;6274746;22;20015;-77
2023/04/13 07:19:32;;;;;;;7.38;1.15;;;16.70;54.50;;;;;;6274813;22;20000;-77
2023/04/13 07:21:58;;;;;;;4.97;1.35;;;16.90;63.60;;;;;;6275238;22;20579;-78
2023/04/13 07:24:26;;;;;;;3.75;1.27;;;16.70;53.60;;;;;;6275147;22;20030;-78
2023/04/13 07:26:53;;;;;;;7.63;1.23;;;16.70;85.10;;;;;;6275275;22;20026;-78
2023/04/13 07:29:19;;;;;;;4.75;1.50;;;16.80;85.20;;;;;;6275492;22;19995;-78
2023/04/13 07:31:46;;;;;;;3.92;1.40;;;16.70;85.10;;;;;;6275031;22;20075;-78
2023/04/13 07:34:13;;;;;;;3.88;0.95;;;16.70;54.20;;;;;;6275166;22;19996;-78
2023/04/13 07:36:41;;;;;;;7.20;1.35;;;16.70;54.20;;;;;;6274954;22;20322;-78
2023/04/13 07:39:08;;;;;;;6.03;1.30;;;16.90;78.90;;;;;;6275217;22;20155;-77
2023/04/13 07:41:37;;;;;;;4.55;1.35;;;16.70;50.40;;;;;;6274817;22;20019;-77
2023/04/13 07:44:04;;;;;;;7.55;1.58;;;16.70;52.00;;;;;;6274596;22;20038;-79
2023/04/13 07:46:32;;;;;;;6.10;1.63;;;16.70;52.70;;;;;;6275078;22;19991;-77
2023/04/13 07:48:59;;;;;;;6.03;1.33;;;16.70;84.60;;;;;;6275307;22;19996;-71
2023/04/13 07:51:25;;;;;;;7.00;1.80;;;16.80;84.60;;;;;;6275253;22;19996;-71
2023/04/13 07:53:52;;;;;;;5.78;1.27;;;;;;;;;;6275730;22;20023;-71
2023/04/13 07:56:18;;;;;;;3.45;0.93;;;;;;;;;;6276847;22;20097;-71
2023/04/13 07:58:45;;;;;;;3.60;0.95;;;16.50;68.60;;;;;;6276890;22;20330;-71
2023/04/13 08:01:11;;;;;;;3.63;1.00;;;16.60;84.20;;;;;;6277017;22;20003;-71
2023/04/13 08:03:38;;;;;;;6.72;1.70;;;16.80;84.40;;;;;;6276610;22;20007;-71
2023/04/13 08:06:08;;;;;;;4.65;1.23;;;16.80;84.40;;;;;;6277122;22;19999;-71
2023/04/13 08:08:33;;;;;;;4.68;1.00;;;16.50;84.20;;;;;;6277096;22;20034;-71
2023/04/13 08:11:00;;;;;;;3.75;0.85;;;16.80;84.70;;;;;;6276500;22;19992;-71
2023/04/13 08:13:30;;;;;;;4.28;1.40;;;16.70;84.80;;;;;;6277020;22;19999;-71
2023/04/13 08:15:56;;;;;;;3.60;1.40;;;16.50;84.80;;;;;;6276941;22;20362;-71
2023/04/13 08:18:23;;;;;;;4.72;1.27;;;16.60;67.80;;;;;;6276538;22;20004;-71
2023/04/13 08:20:49;;;;;;;6.10;1.23;;;16.70;72.50;;;;;;6286910;22;20022;-71
2023/04/13 08:23:14;;;;;;;5.53;1.10;;;16.70;70.90;;;;;;6286911;22;20431;-71
2023/04/13 08:25:41;;;;;;;4.57;1.17;;;;;;;;;;6274987;22;20000;-71
2023/04/13 08:28:08;;;;;;;4.20;1.00;;;;;;;;;;6286848;22;19995;-70
2023/04/13 08:30:34;;;;;;;5.28;1.80;;;16.60;85.00;;;;;;6286872;22;20000;-71
2023/04/13 08:33:00;;;;;;;6.75;1.50;;;16.50;85.10;;;;;;6286771;22;20342;-71
2023/04/13 08:35:26;;;;;;;4.50;1.60;;;16.60;66.20;;;;;;6286842;22;20560;-71
2023/04/13 08:37:52;;;;;;;4.43;1.40;;;16.70;65.00;;;;;;6286615;22;20225;-71
2023/04/13 08:40:19;;;;;;;5.85;1.40;;;;;;;;;;6276802;22;20343;-71
2023/04/13 08:42:46;;;;;;;5.63;1.67;;;16.50;84.90;;;;;;6276521;22;20007;-76
2023/04/13 08:45:12;;;;;;;4.65;1.35;;;16.60;85.30;;;;;;6286764;22;19996;-77
2023/04/13 08:47:39;;;;;;;6.40;1.67;;;16.60;54.20;;;;;;6276299;22;20003;-77
2023/04/13 08:50:07;;;;;;;4.65;1.38;;;16.60;78.70;;;;;;6276595;22;20066;-77
2023/04/13 08:52:35;;;;;;;6.28;1.95;;;16.60;84.80;;;;;;6276386;22;20485;-76
2023/04/13 08:55:03;;;;;;;8.80;2.00;;;16.40;80.30;;;;;;6276576;22;20322;-79
2023/04/13 08:57:30;;;;;;;5.22;1.40;;;16.70;53.00;;;;;;6276459;22;20008;-77
2023/04/13 08:59:57;;;;;;;5.28;1.55;;;16.70;82.90;;;;;;6276710;22;20003;-78
2023/04/13 09:02:27;;;;;;;4.13;1.15;;;16.50;82.50;;;;;;6276051;22;20007;-77
2023/04/13 09:05:19;;;;;;;3.53;1.05;;;16.60;82.20;;;;;;6275774;22;20377;-77
2023/04/13 09:07:52;;;;;;;7.18;2.33;;;16.80;82.50;;;;;;6276217;22;20003;-79
2023/04/13 09:10:22;;;;;;;5.32;1.75;;;16.80;82.40;;;;;;6276180;22;20464;-77
2023/04/13 09:12:51;;;;;;;4.78;1.33;;;16.70;51.00;;;;;;6286560;22;19996;-77
2023/04/13 09:15:17;;;;;;;5.97;1.50;;;16.60;80.60;;;;;;6286383;22;19999;-76
2023/04/13 09:17:43;;;;;;;6.03;1.38;;;16.80;73.50;;;;;;6286454;22;20007;-77
2023/04/13 09:20:13;;;;;;;6.13;1.20;;;16.70;50.20;;;;;;6249083;22;20003;-77
2023/04/13 09:22:40;;;;;;;7.30;1.63;;;16.80;82.90;;;;;;6276363;22;20000;-80
2023/04/13 09:25:27;;;;;;;6.07;1.20;;;16.70;82.50;;;;;;6274619;22;20316;-78
2023/04/13 09:27:54;;;;;;;5.68;1.42;;;16.70;61.80;;;;;;6286318;22;20300;-80
2023/04/13 09:30:24;;;;;;;4.57;1.17;;;16.70;51.80;;;;;;6286437;22;20011;-82
2023/04/13 09:33:04;;;;;;;7.75;1.38;;;16.70;50.10;;;;;;6286604;22;20031;-78
2023/04/13 09:35:33;;;;;;;6.90;1.50;;;16.40;82.00;;;;;;6286308;22;19999;-78
2023/04/13 09:37:59;;;;;;;;;;;16.90;52.40;;;;;;6276337;22;20004;-76
2023/04/13 09:40:28;;;;;;;5.78;1.50;;;16.50;82.10;;;;;;6276448;22;19899;-79
2023/04/13 09:43:03;;;;;;;5.38;1.30;;;16.80;69.10;;;;;;6276170;22;19992;-78
2023/04/13 09:45:37;;;;;;;4.55;1.20;;;16.90;82.20;;;;;;6275836;22;20003;-79
2023/04/13 09:48:05;;;;;;;3.97;1.17;;;16.80;82.00;;;;;;6276075;22;20022;-80
2023/04/13 09:50:35;;;;;;;5.40;1.73;;;16.80;64.30;;;;;;6276114;22;20004;-78
2023/04/13 09:53:05;;;;;;;5.20;1.38;;;16.70;51.20;;;;;;6276164;22;20018;-78
2023/04/13 09:55:35;;;;;;;4.50;1.00;;;16.80;81.70;;;;;;6276105;22;20011;-80
2023/04/13 09:58:13;;;;;;;6.43;1.80;;;16.90;60.70;;;;;;6276027;22;20021;-77
2023/04/13 10:00:41;;;;;;;4.45;1.17;;;16.90;81.70;;;;;;6276012;22;20303;-78
2023/04/13 10:03:11;;;;;;;5.32;1.48;;;15.90;49.50;;;;;;6285590;22;20339;-77
2023/04/13 10:05:38;;;;;;;4.65;1.20;;;16.80;81.70;;;;;;6285920;22;20074;-74
2023/04/13 10:08:05;;;;;;;7.95;1.60;;;16.90;56.70;;;;;;6275703;22;19996;-78
2023/04/13 10:10:35;;;;;;;4.95;1.50;;;16.40;81.70;;;;;;6275954;22;19995;-76
2023/04/13 10:13:06;;;;;;;;;;;16.80;52.10;;;;;;6276515;22;19999;-77
2023/04/13 10:16:10;;;;;;;5.43;1.00;;;16.80;50.00;;;;;;6286127;22;20327;-76
2023/04/13 10:18:56;;;;;;;3.35;1.10;;;16.80;49.80;;;;;;6275295;22;20011;-80
2023/04/13 10:21:25;;;;;;;3.13;0.77;;;16.80;50.80;;;;;;6287476;22;19995;-86
2023/04/13 10:23:51;;;;;;;2.85;1.20;;;17.00;82.30;;;;;;6277175;22;20041;-87
2023/04/13 10:26:17;;;;;;;4.47;1.15;;;16.50;66.50;;;;;;6285740;22;20045;-84
2023/04/13 10:28:45;;;;;;;6.07;1.42;;;16.80;51.40;;;;;;6286184;22;20493;-85
2023/04/13 10:31:11;;;;;;;4.85;1.45;;;;;;;;;;6286243;22;20323;-77
2023/04/13 10:33:47;;;;;;;4.50;1.17;;;16.80;63.10;;;;;;6286435;22;20300;-73
2023/04/13 10:36:13;;;;;;;5.80;1.48;;;16.50;74.80;;;;;;6285496;22;19991;-75
2023/04/13 10:38:42;;;;;;;3.70;1.13;;;16.80;49.80;;;;;;6285781;22;20014;-91
2023/04/13 10:41:09;;;;;;;5.90;1.15;;;;;;;;;;6276156;22;19999;-84
2023/04/13 10:43:35;;;;;;;6.90;1.30;;;;;;;;;;6275723;22;20000;-81
2023/04/13 10:46:09;;;;;;;4.65;0.93;;;16.80;73.10;;;;;;6275521;22;20334;-83
2023/04/13 10:48:36;;;;;;;2.70;0.80;;;16.70;75.30;;;;;;6275557;22;20453;-83
2023/04/13 10:51:02;;;;;;;5.07;1.27;;;16.90;81.90;;;;;;6275663;22;19996;-82
2023/04/13 10:53:29;;;;;;;4.85;0.98;;;16.80;82.20;;;;;;6275376;22;20249;-83
2023/04/13 10:55:56;;;;;;;5.55;1.15;;;17.00;82.10;;;;;;6275568;22;20002;-82
2023/04/13 10:58:22;;;;;;;3.13;1.02;;;;;;;;;;6285527;22;20010;-83
2023/04/13 11:00:53;;;;;;;3.72;1.17;;;;;;;;;;6273628;22;20003;-83
2023/04/13 11:03:19;;;;;;;5.50;1.27;;;16.70;81.80;;;;;;6274927;22;20023;-83
2023/04/13 11:05:47;;;;;;;3.85;0.98;;;16.90;81.80;;;;;;6285253;22;20496;-85
2023/04/13 11:08:19;;;;;;;7.45;1.48;;;16.90;54.80;;;;;;6285595;22;19996;-83
2023/04/13 11:10:55;;;;;;;6.20;1.38;;;16.80;49.60;;;;;;6285650;22;20079;-84
2023/04/13 11:13:24;;;;;;;6.13;1.00;;;16.90;51.30;;;;;;6285492;22;20003;-83
2023/04/13 11:15:50;;;;;;;6.55;1.30;;;16.80;81.80;;;;;;6285508;22;19996;-83
2023/04/13 11:18:27;;;;;;;4.57;1.27;;;16.90;49.70;;;;;;6275460;22;20007;-83
2023/04/13 11:21:16;;;;;;;5.32;1.13;;;16.50;81.80;;;;;;6274973;22;20007;-82
2023/04/13 11:23:52;;;;;;;7.43;1.60;;;16.80;49.70;;;;;;6275141;22;20002;-83
2023/04/13 11:26:30;;;;;;;4.05;1.02;;;16.80;51.40;;;;;;6275523;22;20000;-82
2023/04/13 11:28:56;;;;;;;5.88;1.60;;;16.70;72.40;;;;;;6275826;22;20010;-82
2023/04/13 11:31:33;;;;;;;8.23;1.50;;;17.00;81.70;;;;;;6286018;22;20316;-81
2023/04/13 11:33:59;;;;;;;5.88;1.20;;;;;;;;;;6287631;22;19996;-82
2023/04/13 11:36:29;;;;;;;6.40;1.45;;;16.40;67.90;;;;;;6276898;22;19996;-82
2023/04/13 11:38:55;;;;;;;8.88;1.27;;;;;;;;;;6277236;22;20012;-76
2023/04/13 11:41:21;;;;;;;4.60;1.17;;;16.80;81.60;;;;;;6287484;22;20423;-83
2023/04/13 11:43:47;;;;;;;7.45;1.65;;;;;;;;;;6287285;22;20045;-84
2023/04/13 11:46:14;;;;;;;5.15;1.55;;;;;;;;;;6287514;22;19995;-82
2023/04/13 11:48:41;;;;;;;7.22;1.80;;;16.80;81.00;;;;;;6277467;22;20011;-83
2023/04/13 11:51:07;;;;;;;4.93;1.33;;;17.40;52.60;;;;;;6287561;22;19999;-84
2023/04/13 11:53:35;;;;;;;4.25;1.17;;;17.20;76.00;;;;;;6287489;22;20335;-84
2023/04/13 11:56:01;;;;;;;3.38;1.02;;;17.30;55.10;;;;;;6287377;22;19992;-87
2023/04/13 11:58:27;;;;;;;8.15;1.38;;;;;;;;;;6287301;22;20008;-85
2023/04/13 12:00:54;;;;;;;7.90;1.45;;;17.50;76.60;;;;;;6277339;22;20326;-81
2023/04/13 12:03:20;;;;;;;4.25;1.30;;;17.50;80.00;;;;;;6276899;22;20023;-82
2023/04/13 12:05:46;;;;;;;5.20;1.35;;;17.30;79.70;;;;;;6277034;22;19992;-85
2023/04/13 12:08:22;;;;;;;7.22;2.15;;;17.20;79.70;;;;;;6277240;22;20019;-87
2023/04/13 12:11:05;;;;;;;5.05;1.17;;;17.40;48.40;;;;;;6277428;22;20351;-87
2023/04/13 12:13:44;;;;;;;5.78;1.30;;;17.70;79.80;;;;;;6277629;22;20003;-87
2023/04/13 12:16:22;;;;;;;3.97;1.30;;;17.60;48.60;;;;;;6277358;22;20030;-87
2023/04/13 12:18:48;;;;;;;4.97;1.23;;;;;;;;;;6277284;22;20034;-87
2023/04/13 12:21:16;;;;;;;4.85;1.38;;;18.00;48.00;;;;;;6277299;22;19996;-73
2023/04/13 12:23:54;;;;;;;3.78;1.10;;;18.10;78.40;;;;;;6286902;22;19996;-73
2023/04/13 12:26:23;;;;;;;4.18;0.82;;;18.10;78.50;;;;;;6287080;22;20462;-73
2023/04/13 12:28:55;;;;;;;4.47;1.23;;;17.90;53.70;;;;;;6286873;22;20007;-74
2023/04/13 12:31:21;;;;;;;5.47;1.38;;;;;;;;;;6286992;22;19991;-73
2023/04/13 12:33:47;;;;;;;2.35;1.00;;;;;;;;;;6286782;22;20023;-73
2023/04/13 12:36:13;;;;;;;6.05;1.10;;;;;;;;;;6286738;22;20024;-73
2023/04/13 12:38:39;;;;;;;7.75;1.52;;;;;;;;;;6286781;22;20064;-73
2023/04/13 12:41:08;;;;;;;4.75;1.05;;;17.80;67.80;;;;;;6286657;22;19996;-73
2023/04/13 12:43:34;;;;;;;5.93;1.33;;;18.00;79.60;;;;;;6286861;22;20343;-73
2023/04/13 12:46:00;;;;;;;3.78;1.38;;;;;;;;;;6286703;22;20002;-73
2023/04/13 12:48:27;;;;;;;5.47;1.48;;;17.60;58.90;;;;;;6276857;22;20296;-72
2023/04/13 12:50:53;;;;;;;4.82;1.10;;;17.90;48.50;;;;;;6276318;22;20004;-73
2023/04/13 12:53:19;;;;;;;7.20;2.45;;;;;;;;;;6286594;22;20003;-72
2023/04/13 12:55:45;;;;;;;4.78;1.20;;;18.20;60.50;;;;;;6276701;22;20003;-73
2023/04/13 12:58:11;;;;;;;3.50;1.20;;;;;;;;;;6286651;22;20011;-73
2023/04/13 13:00:37;;;;;;;2.28;0.80;;;;;;;;;;6286677;22;19991;-72
2023/04/13 13:03:04;;;;;;;4.18;1.15;;;18.30;58.50;;;;;;6275834;22;20015;-73
2023/04/13 13:05:30;;;;;;;4.13;1.10;;;18.50;77.60;;;;;;6286464;22;19996;-72
2023/04/13 13:07:56;;;;;;;4.80;1.38;;;18.60;78.10;;;;;;6276510;22;20022;-73
2023/04/13 13:10:22;;;;;;;3.92;1.10;;;18.20;77.90;;;;;;6276501;22;20415;-73
2023/04/13 13:12:48;;;;;;;4.20;1.10;;;18.00;78.00;;;;;;6276498;22;19996;-73